sensor_id;sensor_type;location;lat;lon;timestamp;temperature;humidity
25170;DHT22;13129;48.012;10.352;2024-01-07T04:35:28;1.70;99.90
25170;DHT22;13129;48.012;10.352;2024-01-07T04:37:54;1.80;99.90
25170;DHT22;13129;48.012;10.352;2024-01-07T04:43:13;1.70;99.90
25170;DHT22;13129;48.012;10.352;2024-01-07T04:45:39;1.60;99.90
25170;DHT22;13129;48.012;10.352;2024-01-07T04:48:04;1.60;99.90
25170;DHT22;13129;48.012;10.352;2024-01-07T04:50:30;1.70;99.90
25170;DHT22;13129;48.012;10.352;2024-01-07T04:52:56;1.60;99.90
25170;DHT22;13129;48.012;10.352;2024-01-07T04:58:09;1.60;99.90
25170;DHT22;13129;48.012;10.352;2024-01-07T05:03:28;1.60;99.90
25170;DHT22;13129;48.012;10.352;2024-01-07T05:11:43;1.50;99.90
25170;DHT22;13129;48.012;10.352;2024-01-07T05:14:11;1.60;99.90
25170;DHT22;13129;48.012;10.352;2024-01-07T05:19:26;1.50;99.90
25170;DHT22;13129;48.012;10.352;2024-01-07T05:21:53;1.60;99.90
25170;DHT22;13129;48.012;10.352;2024-01-07T05:27:10;1.60;99.90
25170;DHT22;13129;48.012;10.352;2024-01-07T05:29:36;1.60;99.90
25170;DHT22;13129;48.012;10.352;2024-01-07T05:34:49;1.60;99.90
25170;DHT22;13129;48.012;10.352;2024-01-07T05:37:15;1.60;99.90
25170;DHT22;13129;48.012;10.352;2024-01-07T05:39:41;1.50;99.90
25170;DHT22;13129;48.012;10.352;2024-01-07T05:42:06;1.50;99.90
25170;DHT22;13129;48.012;10.352;2024-01-07T05:47:18;1.50;99.90
25170;DHT22;13129;48.012;10.352;2024-01-07T05:58:23;1.50;99.90
25170;DHT22;13129;48.012;10.352;2024-01-07T06:15:24;1.70;99.90
25170;DHT22;13129;48.012;10.352;2024-01-07T06:23:22;1.70;99.90
25170;DHT22;13129;48.012;10.352;2024-01-07T06:28:37;1.70;99.90
25170;DHT22;13129;48.012;10.352;2024-01-07T06:39:30;1.80;99.90
25170;DHT22;13129;48.012;10.352;2024-01-07T06:41:57;1.80;99.90
25170;DHT22;13129;48.012;10.352;2024-01-07T06:44:22;1.80;99.90
25170;DHT22;13129;48.012;10.352;2024-01-07T06:49:29;1.80;99.90
25170;DHT22;13129;48.012;10.352;2024-01-07T06:54:41;1.80;99.90
25170;DHT22;13129;48.012;10.352;2024-01-07T07:05:22;1.80;99.90
25170;DHT22;13129;48.012;10.352;2024-01-07T07:10:30;1.80;99.90
25170;DHT22;13129;48.012;10.352;2024-01-07T07:15:35;1.80;99.90
25170;DHT22;13129;48.012;10.352;2024-01-07T07:20:52;1.80;99.90
25170;DHT22;13129;48.012;10.352;2024-01-07T07:23:18;1.80;99.90
25170;DHT22;13129;48.012;10.352;2024-01-07T07:25:44;1.80;99.90
25170;DHT22;13129;48.012;10.352;2024-01-07T07:28:09;1.80;99.90
25170;DHT22;13129;48.012;10.352;2024-01-07T07:30:35;1.90;99.90
25170;DHT22;13129;48.012;10.352;2024-01-07T07:33:01;1.80;99.90
25170;DHT22;13129;48.012;10.352;2024-01-07T07:35:27;1.80;99.90
25170;DHT22;13129;48.012;10.352;2024-01-07T07:37:53;1.80;99.90
25170;DHT22;13129;48.012;10.352;2024-01-07T07:40:19;1.80;99.90
25170;DHT22;13129;48.012;10.352;2024-01-07T07:42:45;2.00;99.90
25170;DHT22;13129;48.012;10.352;2024-01-07T07:45:10;1.90;99.90
25170;DHT22;13129;48.012;10.352;2024-01-07T07:47:36;1.90;99.90
25170;DHT22;13129;48.012;10.352;2024-01-07T07:50:02;1.90;99.90
25170;DHT22;13129;48.012;10.352;2024-01-07T07:52:28;1.90;99.90
25170;DHT22;13129;48.012;10.352;2024-01-07T07:54:54;1.90;99.90
25170;DHT22;13129;48.012;10.352;2024-01-07T07:57:20;1.90;99.90
25170;DHT22;13129;48.012;10.352;2024-01-07T07:59:47;1.90;99.90
25170;DHT22;13129;48.012;10.352;2024-01-07T08:02:13;2.00;99.90
25170;DHT22;13129;48.012;10.352;2024-01-07T08:04:39;2.00;99.90
25170;DHT22;13129;48.012;10.352;2024-01-07T08:07:08;2.00;99.90
25170;DHT22;13129;48.012;10.352;2024-01-07T08:09:33;2.20;99.90
25170;DHT22;13129;48.012;10.352;2024-01-07T08:12:03;2.00;99.90
25170;DHT22;13129;48.012;10.352;2024-01-07T08:14:29;2.10;99.90
25170;DHT22;13129;48.012;10.352;2024-01-07T08:16:55;2.00;99.90
25170;DHT22;13129;48.012;10.352;2024-01-07T08:19:23;2.10;99.90
25170;DHT22;13129;48.012;10.352;2024-01-07T08:21:48;2.10;99.90
25170;DHT22;13129;48.012;10.352;2024-01-07T08:24:14;2.10;99.90
25170;DHT22;13129;48.012;10.352;2024-01-07T08:26:40;2.10;99.90
25170;DHT22;13129;48.012;10.352;2024-01-07T08:29:05;2.20;99.90
25170;DHT22;13129;48.012;10.352;2024-01-07T08:31:32;2.10;99.90
25170;DHT22;13129;48.012;10.352;2024-01-07T08:33:58;2.20;99.90
25170;DHT22;13129;48.012;10.352;2024-01-07T08:36:23;2.20;99.90
25170;DHT22;13129;48.012;10.352;2024-01-07T08:38:52;2.20;99.90
25170;DHT22;13129;48.012;10.352;2024-01-07T08:41:18;2.20;99.90
25170;DHT22;13129;48.012;10.352;2024-01-07T08:43:44;2.30;99.90
25170;DHT22;13129;48.012;10.352;2024-01-07T08:46:12;2.40;99.90
25170;DHT22;13129;48.012;10.352;2024-01-07T08:48:39;2.40;99.90
25170;DHT22;13129;48.012;10.352;2024-01-07T08:51:05;2.40;99.90
25170;DHT22;13129;48.012;10.352;2024-01-07T08:53:32;2.40;99.90
25170;DHT22;13129;48.012;10.352;2024-01-07T08:55:57;2.60;99.90
25170;DHT22;13129;48.012;10.352;2024-01-07T08:58:23;2.60;99.90
25170;DHT22;13129;48.012;10.352;2024-01-07T09:00:49;2.60;99.90
25170;DHT22;13129;48.012;10.352;2024-01-07T09:03:15;2.70;99.90
25170;DHT22;13129;48.012;10.352;2024-01-07T09:05:40;2.70;99.90
25170;DHT22;13129;48.012;10.352;2024-01-07T09:08:06;2.70;99.90
25170;DHT22;13129;48.012;10.352;2024-01-07T09:10:32;2.80;99.90
25170;DHT22;13129;48.012;10.352;2024-01-07T09:12:59;2.80;99.90
25170;DHT22;13129;48.012;10.352;2024-01-07T09:15:25;2.70;99.90
25170;DHT22;13129;48.012;10.352;2024-01-07T09:17:51;2.90;99.90
25170;DHT22;13129;48.012;10.352;2024-01-07T09:20:17;2.90;99.90
25170;DHT22;13129;48.012;10.352;2024-01-07T09:22:42;2.90;99.90
25170;DHT22;13129;48.012;10.352;2024-01-07T09:25:09;2.90;99.90
25170;DHT22;13129;48.012;10.352;2024-01-07T09:27:35;3.00;99.90
25170;DHT22;13129;48.012;10.352;2024-01-07T09:30:01;3.00;99.90
25170;DHT22;13129;48.012;10.352;2024-01-07T09:32:27;3.00;99.90
25170;DHT22;13129;48.012;10.352;2024-01-07T09:34:52;3.10;99.90
25170;DHT22;13129;48.012;10.352;2024-01-07T09:37:19;3.00;99.90
25170;DHT22;13129;48.012;10.352;2024-01-07T09:39:45;3.00;99.90
25170;DHT22;13129;48.012;10.352;2024-01-07T09:42:15;3.00;99.90
25170;DHT22;13129;48.012;10.352;2024-01-07T09:44:42;2.90;99.90
25170;DHT22;13129;48.012;10.352;2024-01-07T09:47:11;3.10;99.90
25170;DHT22;13129;48.012;10.352;2024-01-07T09:49:38;2.90;99.90
25170;DHT22;13129;48.012;10.352;2024-01-07T09:52:04;2.80;99.90
25170;DHT22;13129;48.012;10.352;2024-01-07T09:54:30;2.80;99.90
25170;DHT22;13129;48.012;10.352;2024-01-07T09:57:00;2.70;99.90
25170;DHT22;13129;48.012;10.352;2024-01-07T09:59:27;2.70;99.90
25170;DHT22;13129;48.012;10.352;2024-01-07T10:01:53;2.70;99.90
25170;DHT22;13129;48.012;10.352;2024-01-07T10:04:19;2.60;99.90
25170;DHT22;13129;48.012;10.352;2024-01-07T10:06:45;2.70;99.90
25170;DHT22;13129;48.012;10.352;2024-01-07T10:09:13;2.70;99.90
25170;DHT22;13129;48.012;10.352;2024-01-07T10:11:38;2.70;99.90
25170;DHT22;13129;48.012;10.352;2024-01-07T10:14:05;2.70;99.90
25170;DHT22;13129;48.012;10.352;2024-01-07T10:16:30;2.80;99.90
25170;DHT22;13129;48.012;10.352;2024-01-07T10:18:58;2.80;99.90
25170;DHT22;13129;48.012;10.352;2024-01-07T10:21:24;2.90;99.90
25170;DHT22;13129;48.012;10.352;2024-01-07T10:23:50;2.80;99.90
25170;DHT22;13129;48.012;10.352;2024-01-07T10:26:15;3.00;99.90
25170;DHT22;13129;48.012;10.352;2024-01-07T10:28:41;2.90;99.90
25170;DHT22;13129;48.012;10.352;2024-01-07T10:31:09;2.90;99.90
25170;DHT22;13129;48.012;10.352;2024-01-07T10:33:34;2.90;99.90
25170;DHT22;13129;48.012;10.352;2024-01-07T10:36:05;2.90;99.90
25170;DHT22;13129;48.012;10.352;2024-01-07T10:38:32;3.00;99.90
25170;DHT22;13129;48.012;10.352;2024-01-07T10:41:01;3.00;99.90
25170;DHT22;13129;48.012;10.352;2024-01-07T10:43:30;3.00;99.90
25170;DHT22;13129;48.012;10.352;2024-01-07T10:46:00;3.10;99.90
25170;DHT22;13129;48.012;10.352;2024-01-07T10:48:30;3.10;99.90
25170;DHT22;13129;48.012;10.352;2024-01-07T10:50:59;3.10;99.90
25170;DHT22;13129;48.012;10.352;2024-01-07T10:53:28;3.10;99.90
25170;DHT22;13129;48.012;10.352;2024-01-07T10:56:02;3.20;99.90
25170;DHT22;13129;48.012;10.352;2024-01-07T10:58:37;3.10;99.90
25170;DHT22;13129;48.012;10.352;2024-01-07T11:01:05;3.10;99.90
25170;DHT22;13129;48.012;10.352;2024-01-07T11:03:40;3.10;99.90
25170;DHT22;13129;48.012;10.352;2024-01-07T11:06:11;3.10;99.90
25170;DHT22;13129;48.012;10.352;2024-01-07T11:08:56;3.20;99.90
25170;DHT22;13129;48.012;10.352;2024-01-07T11:11:31;3.20;99.90
25170;DHT22;13129;48.012;10.352;2024-01-07T11:14:00;3.20;99.90
25170;DHT22;13129;48.012;10.352;2024-01-07T11:16:42;3.20;99.90
25170;DHT22;13129;48.012;10.352;2024-01-07T11:19:12;3.20;99.90
25170;DHT22;13129;48.012;10.352;2024-01-07T11:21:38;3.30;99.90
25170;DHT22;13129;48.012;10.352;2024-01-07T11:24:04;3.30;99.90
25170;DHT22;13129;48.012;10.352;2024-01-07T11:26:29;3.40;99.90
25170;DHT22;13129;48.012;10.352;2024-01-07T11:28:56;3.40;99.90
25170;DHT22;13129;48.012;10.352;2024-01-07T11:34:07;3.40;99.90
25170;DHT22;13129;48.012;10.352;2024-01-07T11:36:35;3.40;99.90
25170;DHT22;13129;48.012;10.352;2024-01-07T11:39:02;3.30;99.90
25170;DHT22;13129;48.012;10.352;2024-01-07T11:41:31;3.40;99.90
25170;DHT22;13129;48.012;10.352;2024-01-07T11:43:59;3.40;99.90
25170;DHT22;13129;48.012;10.352;2024-01-07T11:46:28;3.40;99.90
25170;DHT22;13129;48.012;10.352;2024-01-07T11:48:57;3.30;99.90
25170;DHT22;13129;48.012;10.352;2024-01-07T11:51:30;3.40;99.90
25170;DHT22;13129;48.012;10.352;2024-01-07T11:53:57;3.40;99.90
25170;DHT22;13129;48.012;10.352;2024-01-07T11:56:24;3.40;99.90
25170;DHT22;13129;48.012;10.352;2024-01-07T11:58:50;3.40;99.90
25170;DHT22;13129;48.012;10.352;2024-01-07T12:01:16;3.40;99.90
25170;DHT22;13129;48.012;10.352;2024-01-07T12:03:44;3.30;99.90
25170;DHT22;13129;48.012;10.352;2024-01-07T12:06:09;3.30;99.90
25170;DHT22;13129;48.012;10.352;2024-01-07T12:08:45;3.20;99.90
25170;DHT22;13129;48.012;10.352;2024-01-07T12:11:12;3.10;99.90
25170;DHT22;13129;48.012;10.352;2024-01-07T12:13:39;3.20;99.90
25170;DHT22;13129;48.012;10.352;2024-01-07T12:16:05;3.10;99.90
25170;DHT22;13129;48.012;10.352;2024-01-07T12:18:31;3.10;99.90
25170;DHT22;13129;48.012;10.352;2024-01-07T12:20:58;3.10;99.90
25170;DHT22;13129;48.012;10.352;2024-01-07T12:23:24;3.10;99.90
25170;DHT22;13129;48.012;10.352;2024-01-07T12:25:51;3.10;99.90
25170;DHT22;13129;48.012;10.352;2024-01-07T12:28:17;3.10;99.90
25170;DHT22;13129;48.012;10.352;2024-01-07T12:30:47;3.10;99.90
25170;DHT22;13129;48.012;10.352;2024-01-07T12:33:22;2.90;99.90
25170;DHT22;13129;48.012;10.352;2024-01-07T12:35:48;3.00;99.90
25170;DHT22;13129;48.012;10.352;2024-01-07T12:38:14;3.00;99.90
25170;DHT22;13129;48.012;10.352;2024-01-07T12:40:40;2.90;99.90
25170;DHT22;13129;48.012;10.352;2024-01-07T12:43:06;2.80;99.90
25170;DHT22;13129;48.012;10.352;2024-01-07T12:45:35;2.90;99.90
25170;DHT22;13129;48.012;10.352;2024-01-07T12:48:00;2.90;99.90
25170;DHT22;13129;48.012;10.352;2024-01-07T12:50:28;2.80;99.90
25170;DHT22;13129;48.012;10.352;2024-01-07T12:52:55;2.80;99.90
25170;DHT22;13129;48.012;10.352;2024-01-07T12:55:26;2.80;99.90
25170;DHT22;13129;48.012;10.352;2024-01-07T12:57:52;2.80;99.90
25170;DHT22;13129;48.012;10.352;2024-01-07T13:00:20;2.80;99.90
25170;DHT22;13129;48.012;10.352;2024-01-07T13:02:45;2.90;99.90
25170;DHT22;13129;48.012;10.352;2024-01-07T13:05:12;2.90;99.90
25170;DHT22;13129;48.012;10.352;2024-01-07T13:07:38;2.90;99.90
25170;DHT22;13129;48.012;10.352;2024-01-07T13:10:04;3.10;99.90
25170;DHT22;13129;48.012;10.352;2024-01-07T13:12:30;3.10;99.90
25170;DHT22;13129;48.012;10.352;2024-01-07T13:14:55;3.10;99.90
25170;DHT22;13129;48.012;10.352;2024-01-07T13:17:21;3.00;99.90
25170;DHT22;13129;48.012;10.352;2024-01-07T13:19:46;3.00;99.90
25170;DHT22;13129;48.012;10.352;2024-01-07T13:22:12;2.80;99.90
25170;DHT22;13129;48.012;10.352;2024-01-07T13:24:39;2.80;99.90
25170;DHT22;13129;48.012;10.352;2024-01-07T13:27:05;2.90;99.90
25170;DHT22;13129;48.012;10.352;2024-01-07T13:29:31;2.80;99.90
25170;DHT22;13129;48.012;10.352;2024-01-07T13:31:57;2.70;99.90
25170;DHT22;13129;48.012;10.352;2024-01-07T13:34:22;2.70;99.90
25170;DHT22;13129;48.012;10.352;2024-01-07T13:36:48;2.60;99.90
25170;DHT22;13129;48.012;10.352;2024-01-07T13:39:13;2.50;99.90
25170;DHT22;13129;48.012;10.352;2024-01-07T13:41:41;2.40;99.90
25170;DHT22;13129;48.012;10.352;2024-01-07T13:44:07;2.50;99.90
25170;DHT22;13129;48.012;10.352;2024-01-07T13:46:33;2.50;99.90
25170;DHT22;13129;48.012;10.352;2024-01-07T13:48:59;2.40;99.90
25170;DHT22;13129;48.012;10.352;2024-01-07T13:51:25;2.40;99.90
25170;DHT22;13129;48.012;10.352;2024-01-07T13:53:51;2.40;99.90
25170;DHT22;13129;48.012;10.352;2024-01-07T13:56:17;2.20;99.90
25170;DHT22;13129;48.012;10.352;2024-01-07T13:58:43;2.20;99.90
25170;DHT22;13129;48.012;10.352;2024-01-07T14:01:12;2.20;99.90
25170;DHT22;13129;48.012;10.352;2024-01-07T14:03:38;2.10;99.90
25170;DHT22;13129;48.012;10.352;2024-01-07T14:06:03;2.10;99.90
25170;DHT22;13129;48.012;10.352;2024-01-07T14:08:29;2.00;99.90
25170;DHT22;13129;48.012;10.352;2024-01-07T14:10:55;2.10;99.90
25170;DHT22;13129;48.012;10.352;2024-01-07T14:13:20;2.10;99.90
25170;DHT22;13129;48.012;10.352;2024-01-07T14:15:46;2.10;99.90
25170;DHT22;13129;48.012;10.352;2024-01-07T14:18:12;2.00;99.90
25170;DHT22;13129;48.012;10.352;2024-01-07T14:20:41;2.00;99.90
25170;DHT22;13129;48.012;10.352;2024-01-07T14:23:07;1.80;99.90
25170;DHT22;13129;48.012;10.352;2024-01-07T14:25:33;2.00;99.90
25170;DHT22;13129;48.012;10.352;2024-01-07T14:27:58;1.80;99.90
25170;DHT22;13129;48.012;10.352;2024-01-07T14:30:24;1.70;99.90
25170;DHT22;13129;48.012;10.352;2024-01-07T14:32:50;1.70;99.90
25170;DHT22;13129;48.012;10.352;2024-01-07T14:35:16;1.70;99.90
25170;DHT22;13129;48.012;10.352;2024-01-07T14:37:46;1.40;99.90
25170;DHT22;13129;48.012;10.352;2024-01-07T14:40:12;1.60;99.90
25170;DHT22;13129;48.012;10.352;2024-01-07T14:42:38;1.50;99.90
25170;DHT22;13129;48.012;10.352;2024-01-07T14:45:04;1.60;99.90
25170;DHT22;13129;48.012;10.352;2024-01-07T14:47:29;1.40;99.90
25170;DHT22;13129;48.012;10.352;2024-01-07T14:49:55;1.40;99.90
25170;DHT22;13129;48.012;10.352;2024-01-07T14:52:22;1.40;99.90
25170;DHT22;13129;48.012;10.352;2024-01-07T14:54:47;1.40;99.90
25170;DHT22;13129;48.012;10.352;2024-01-07T14:57:13;1.40;99.90
25170;DHT22;13129;48.012;10.352;2024-01-07T14:59:39;1.30;99.90
25170;DHT22;13129;48.012;10.352;2024-01-07T15:02:05;1.30;99.90
25170;DHT22;13129;48.012;10.352;2024-01-07T15:04:30;1.20;99.90
25170;DHT22;13129;48.012;10.352;2024-01-07T15:06:56;1.10;99.90
25170;DHT22;13129;48.012;10.352;2024-01-07T15:09:22;1.10;99.90
25170;DHT22;13129;48.012;10.352;2024-01-07T15:11:48;1.00;99.90
25170;DHT22;13129;48.012;10.352;2024-01-07T15:14:14;0.90;99.90
25170;DHT22;13129;48.012;10.352;2024-01-07T15:16:40;1.00;99.90
25170;DHT22;13129;48.012;10.352;2024-01-07T15:19:06;1.00;99.90
25170;DHT22;13129;48.012;10.352;2024-01-07T15:21:32;1.00;99.90
25170;DHT22;13129;48.012;10.352;2024-01-07T15:23:57;0.90;99.90
25170;DHT22;13129;48.012;10.352;2024-01-07T15:26:23;0.90;99.90
25170;DHT22;13129;48.012;10.352;2024-01-07T15:28:49;0.80;99.90
25170;DHT22;13129;48.012;10.352;2024-01-07T15:31:14;0.80;99.90
25170;DHT22;13129;48.012;10.352;2024-01-07T15:33:40;0.70;99.90
25170;DHT22;13129;48.012;10.352;2024-01-07T15:36:06;0.60;99.90
25170;DHT22;13129;48.012;10.352;2024-01-07T15:38:32;0.60;99.90
25170;DHT22;13129;48.012;10.352;2024-01-07T15:40:57;0.60;99.90
25170;DHT22;13129;48.012;10.352;2024-01-07T15:43:24;0.60;99.90
25170;DHT22;13129;48.012;10.352;2024-01-07T15:45:50;0.80;99.90
25170;DHT22;13129;48.012;10.352;2024-01-07T15:48:15;0.60;99.90
25170;DHT22;13129;48.012;10.352;2024-01-07T15:50:41;0.60;99.90
25170;DHT22;13129;48.012;10.352;2024-01-07T15:53:07;0.60;99.90
25170;DHT22;13129;48.012;10.352;2024-01-07T15:55:32;0.60;99.90
25170;DHT22;13129;48.012;10.352;2024-01-07T15:57:58;0.60;99.90
25170;DHT22;13129;48.012;10.352;2024-01-07T16:00:24;0.60;99.90
25170;DHT22;13129;48.012;10.352;2024-01-07T16:02:49;0.60;99.90
25170;DHT22;13129;48.012;10.352;2024-01-07T16:05:15;0.50;99.90
25170;DHT22;13129;48.012;10.352;2024-01-07T16:07:42;0.50;99.90
25170;DHT22;13129;48.012;10.352;2024-01-07T16:10:08;0.40;99.90
25170;DHT22;13129;48.012;10.352;2024-01-07T16:12:33;0.40;99.90
25170;DHT22;13129;48.012;10.352;2024-01-07T16:14:59;0.40;99.90
25170;DHT22;13129;48.012;10.352;2024-01-07T16:17:25;0.50;99.90
25170;DHT22;13129;48.012;10.352;2024-01-07T16:19:50;0.50;99.90
25170;DHT22;13129;48.012;10.352;2024-01-07T16:22:17;0.40;99.90
25170;DHT22;13129;48.012;10.352;2024-01-07T16:24:42;0.40;99.90
25170;DHT22;13129;48.012;10.352;2024-01-07T16:27:09;0.30;99.90
25170;DHT22;13129;48.012;10.352;2024-01-07T16:29:35;0.30;99.90
25170;DHT22;13129;48.012;10.352;2024-01-07T16:32:01;0.30;99.90
25170;DHT22;13129;48.012;10.352;2024-01-07T16:34:27;0.30;99.90
25170;DHT22;13129;48.012;10.352;2024-01-07T16:36:53;0.30;99.90
25170;DHT22;13129;48.012;10.352;2024-01-07T16:39:19;0.30;99.90
25170;DHT22;13129;48.012;10.352;2024-01-07T16:41:45;0.30;99.90
25170;DHT22;13129;48.012;10.352;2024-01-07T16:44:12;0.30;99.90
25170;DHT22;13129;48.012;10.352;2024-01-07T16:46:38;0.30;99.90
25170;DHT22;13129;48.012;10.352;2024-01-07T16:49:05;0.30;99.90
25170;DHT22;13129;48.012;10.352;2024-01-07T16:51:32;0.30;99.90
25170;DHT22;13129;48.012;10.352;2024-01-07T16:53:58;0.30;99.90
25170;DHT22;13129;48.012;10.352;2024-01-07T16:56:24;0.20;99.90
25170;DHT22;13129;48.012;10.352;2024-01-07T16:58:49;0.20;99.90
25170;DHT22;13129;48.012;10.352;2024-01-07T17:01:16;0.20;99.90
25170;DHT22;13129;48.012;10.352;2024-01-07T17:03:42;0.30;99.90
25170;DHT22;13129;48.012;10.352;2024-01-07T17:06:07;0.20;99.90
25170;DHT22;13129;48.012;10.352;2024-01-07T17:08:35;0.20;99.90
25170;DHT22;13129;48.012;10.352;2024-01-07T17:11:01;0.20;99.90
25170;DHT22;13129;48.012;10.352;2024-01-07T17:13:27;0.20;99.90
25170;DHT22;13129;48.012;10.352;2024-01-07T17:15:53;0.20;99.90
25170;DHT22;13129;48.012;10.352;2024-01-07T17:18:18;0.20;99.90
25170;DHT22;13129;48.012;10.352;2024-01-07T17:20:44;0.20;99.90
25170;DHT22;13129;48.012;10.352;2024-01-07T17:23:10;0.30;99.90
25170;DHT22;13129;48.012;10.352;2024-01-07T17:25:35;0.20;99.90
25170;DHT22;13129;48.012;10.352;2024-01-07T17:28:01;0.20;99.90
25170;DHT22;13129;48.012;10.352;2024-01-07T17:30:27;0.20;99.90
25170;DHT22;13129;48.012;10.352;2024-01-07T17:32:53;0.40;99.90
25170;DHT22;13129;48.012;10.352;2024-01-07T17:35:19;0.30;99.90
25170;DHT22;13129;48.012;10.352;2024-01-07T17:37:44;0.30;99.90
25170;DHT22;13129;48.012;10.352;2024-01-07T17:40:10;0.40;99.90
25170;DHT22;13129;48.012;10.352;2024-01-07T17:42:38;0.30;99.90
25170;DHT22;13129;48.012;10.352;2024-01-07T17:45:05;0.30;99.90
25170;DHT22;13129;48.012;10.352;2024-01-07T17:47:37;0.30;99.90
25170;DHT22;13129;48.012;10.352;2024-01-07T17:50:04;0.30;99.90
25170;DHT22;13129;48.012;10.352;2024-01-07T17:52:30;0.30;99.90
25170;DHT22;13129;48.012;10.352;2024-01-07T17:54:55;0.30;99.90
25170;DHT22;13129;48.012;10.352;2024-01-07T17:57:26;0.10;99.90
25170;DHT22;13129;48.012;10.352;2024-01-07T17:59:51;0.10;99.90
25170;DHT22;13129;48.012;10.352;2024-01-07T18:02:18;0.20;99.90
25170;DHT22;13129;48.012;10.352;2024-01-07T18:04:44;0.00;99.90
25170;DHT22;13129;48.012;10.352;2024-01-07T18:07:09;-0.10;99.90
25170;DHT22;13129;48.012;10.352;2024-01-07T18:09:37;-0.10;99.90
25170;DHT22;13129;48.012;10.352;2024-01-07T18:12:03;-0.10;99.90
25170;DHT22;13129;48.012;10.352;2024-01-07T18:14:29;-0.10;99.90
25170;DHT22;13129;48.012;10.352;2024-01-07T18:16:54;-0.10;99.90
25170;DHT22;13129;48.012;10.352;2024-01-07T18:19:20;-0.10;99.90
25170;DHT22;13129;48.012;10.352;2024-01-07T18:21:45;-0.20;99.90
25170;DHT22;13129;48.012;10.352;2024-01-07T18:24:11;-0.20;99.90
25170;DHT22;13129;48.012;10.352;2024-01-07T18:26:39;-0.20;99.90
25170;DHT22;13129;48.012;10.352;2024-01-07T18:29:05;-0.20;99.90
25170;DHT22;13129;48.012;10.352;2024-01-07T18:31:31;-0.20;99.90
25170;DHT22;13129;48.012;10.352;2024-01-07T18:33:57;-0.20;99.90
25170;DHT22;13129;48.012;10.352;2024-01-07T18:36:22;-0.20;99.90
25170;DHT22;13129;48.012;10.352;2024-01-07T18:38:48;-0.30;99.90
25170;DHT22;13129;48.012;10.352;2024-01-07T18:41:20;-0.30;99.90
25170;DHT22;13129;48.012;10.352;2024-01-07T18:43:45;-0.30;99.90
25170;DHT22;13129;48.012;10.352;2024-01-07T18:46:13;-0.30;99.90
25170;DHT22;13129;48.012;10.352;2024-01-07T18:48:38;-0.30;99.90
25170;DHT22;13129;48.012;10.352;2024-01-07T18:51:04;-0.20;99.90
25170;DHT22;13129;48.012;10.352;2024-01-07T18:53:30;-0.30;99.90
25170;DHT22;13129;48.012;10.352;2024-01-07T18:55:55;-0.40;99.90
25170;DHT22;13129;48.012;10.352;2024-01-07T18:58:21;-0.30;99.90
25170;DHT22;13129;48.012;10.352;2024-01-07T19:00:48;-0.40;99.90
25170;DHT22;13129;48.012;10.352;2024-01-07T19:03:13;-0.40;99.90
25170;DHT22;13129;48.012;10.352;2024-01-07T19:05:41;-0.30;99.90
25170;DHT22;13129;48.012;10.352;2024-01-07T19:08:10;-0.30;99.90
25170;DHT22;13129;48.012;10.352;2024-01-07T19:10:35;-0.30;99.90
25170;DHT22;13129;48.012;10.352;2024-01-07T19:13:01;-0.30;99.90
25170;DHT22;13129;48.012;10.352;2024-01-07T19:15:27;-0.20;99.90
25170;DHT22;13129;48.012;10.352;2024-01-07T19:17:52;-0.20;99.90
25170;DHT22;13129;48.012;10.352;2024-01-07T19:20:18;-0.30;99.90
25170;DHT22;13129;48.012;10.352;2024-01-07T19:22:44;-0.30;99.90
25170;DHT22;13129;48.012;10.352;2024-01-07T19:25:13;-0.30;99.90
25170;DHT22;13129;48.012;10.352;2024-01-07T19:27:40;-0.30;99.90
25170;DHT22;13129;48.012;10.352;2024-01-07T19:30:06;-0.20;99.90
25170;DHT22;13129;48.012;10.352;2024-01-07T19:32:32;-0.30;99.90
25170;DHT22;13129;48.012;10.352;2024-01-07T19:34:58;-0.30;99.90
25170;DHT22;13129;48.012;10.352;2024-01-07T19:37:23;-0.30;99.90
25170;DHT22;13129;48.012;10.352;2024-01-07T19:39:49;-0.30;99.90
25170;DHT22;13129;48.012;10.352;2024-01-07T19:42:15;-0.30;99.90
25170;DHT22;13129;48.012;10.352;2024-01-07T19:44:41;-0.30;99.90
25170;DHT22;13129;48.012;10.352;2024-01-07T19:47:06;-0.30;99.90
25170;DHT22;13129;48.012;10.352;2024-01-07T19:49:32;-0.30;99.90
25170;DHT22;13129;48.012;10.352;2024-01-07T19:51:58;-0.30;99.90
25170;DHT22;13129;48.012;10.352;2024-01-07T19:54:23;-0.20;99.90
25170;DHT22;13129;48.012;10.352;2024-01-07T19:56:50;-0.20;99.90
25170;DHT22;13129;48.012;10.352;2024-01-07T19:59:16;-0.30;99.90
25170;DHT22;13129;48.012;10.352;2024-01-07T20:01:45;-0.30;99.90
25170;DHT22;13129;48.012;10.352;2024-01-07T20:04:11;-0.30;99.90
25170;DHT22;13129;48.012;10.352;2024-01-07T20:06:39;-0.30;99.90
25170;DHT22;13129;48.012;10.352;2024-01-07T20:09:05;-0.30;99.90
25170;DHT22;13129;48.012;10.352;2024-01-07T20:11:31;-0.30;99.90
25170;DHT22;13129;48.012;10.352;2024-01-07T20:13:58;-0.40;99.90
25170;DHT22;13129;48.012;10.352;2024-01-07T20:16:24;-0.40;99.90
25170;DHT22;13129;48.012;10.352;2024-01-07T20:18:50;-0.50;99.90
25170;DHT22;13129;48.012;10.352;2024-01-07T20:21:22;-0.50;99.90
25170;DHT22;13129;48.012;10.352;2024-01-07T20:23:52;-0.50;99.90
25170;DHT22;13129;48.012;10.352;2024-01-07T20:26:31;-0.60;99.90
25170;DHT22;13129;48.012;10.352;2024-01-07T20:28:57;-0.50;99.90
25170;DHT22;13129;48.012;10.352;2024-01-07T20:31:25;-0.50;99.90
25170;DHT22;13129;48.012;10.352;2024-01-07T20:33:51;-0.50;99.90
25170;DHT22;13129;48.012;10.352;2024-01-07T20:36:18;-0.50;99.90
25170;DHT22;13129;48.012;10.352;2024-01-07T20:38:44;-0.50;99.90
25170;DHT22;13129;48.012;10.352;2024-01-07T20:41:10;-0.50;99.90
25170;DHT22;13129;48.012;10.352;2024-01-07T20:43:37;-0.60;99.90
25170;DHT22;13129;48.012;10.352;2024-01-07T20:46:06;-0.60;99.90
25170;DHT22;13129;48.012;10.352;2024-01-07T20:48:32;-0.70;99.90
25170;DHT22;13129;48.012;10.352;2024-01-07T20:51:03;-0.70;99.90
25170;DHT22;13129;48.012;10.352;2024-01-07T20:53:29;-0.80;99.90
25170;DHT22;13129;48.012;10.352;2024-01-07T20:55:56;-0.90;99.90
25170;DHT22;13129;48.012;10.352;2024-01-07T20:58:27;-0.90;99.90
25170;DHT22;13129;48.012;10.352;2024-01-07T21:00:54;-0.90;99.90
25170;DHT22;13129;48.012;10.352;2024-01-07T21:03:20;-1.00;99.90
25170;DHT22;13129;48.012;10.352;2024-01-07T21:05:46;-1.20;99.90
25170;DHT22;13129;48.012;10.352;2024-01-07T21:08:12;-1.20;99.90
25170;DHT22;13129;48.012;10.352;2024-01-07T21:10:38;-1.30;99.90
25170;DHT22;13129;48.012;10.352;2024-01-07T21:13:05;-1.50;99.90
25170;DHT22;13129;48.012;10.352;2024-01-07T21:15:31;-1.70;99.90
25170;DHT22;13129;48.012;10.352;2024-01-07T21:17:58;-1.80;99.90
25170;DHT22;13129;48.012;10.352;2024-01-07T21:20:27;-2.00;99.90
25170;DHT22;13129;48.012;10.352;2024-01-07T21:22:53;-2.00;99.90
25170;DHT22;13129;48.012;10.352;2024-01-07T21:25:19;-2.10;99.90
25170;DHT22;13129;48.012;10.352;2024-01-07T21:27:45;-2.10;99.90